createdAt,value
2024-01-15T00:00:06.210Z,-0.17
2024-01-15T00:01:09.308Z,-0.19
2024-01-15T00:02:13.217Z,-0.03
2024-01-15T00:03:15.289Z,-0.13
2024-01-15T00:04:17.497Z,0.02
2024-01-15T00:05:19.677Z,-0.03
2024-01-15T00:06:23.993Z,-0.04
2024-01-15T00:07:26.223Z,0.02
2024-01-15T00:08:28.140Z,-0.18
2024-01-15T00:09:30.121Z,-0.18
2024-01-15T00:10:32.635Z,-0.19
2024-01-15T00:11:35.419Z,-0.14
2024-01-15T00:12:37.455Z,-0.13
2024-01-15T00:13:39.959Z,-0.18
2024-01-15T00:14:41.908Z,-0.09
2024-01-15T00:15:43.928Z,-0.05
2024-01-15T00:16:47.263Z,-0.20
2024-01-15T00:17:49.328Z,-0.03
2024-01-15T00:18:51.570Z,-0.20
2024-01-15T00:19:54.099Z,-0.01
2024-01-15T00:20:56.716Z,0.11
2024-01-15T00:21:58.802Z,0.17
2024-01-15T00:23:00.826Z,0.18
2024-01-15T00:24:03.203Z,0.23
2024-01-15T00:25:05.785Z,0.27
2024-01-15T00:26:10.634Z,0.24
2024-01-15T00:27:12.449Z,0.21
2024-01-15T00:28:14.575Z,0.24
2024-01-15T00:29:16.625Z,0.25
2024-01-15T00:30:19.307Z,0.28
2024-01-15T00:31:21.555Z,0.30
2024-01-15T00:32:23.841Z,0.31
2024-01-15T00:33:25.969Z,0.35
2024-01-15T00:34:28.322Z,0.25
2024-01-15T00:35:30.461Z,0.25
2024-01-15T00:36:32.772Z,0.28
2024-01-15T00:37:38.472Z,0.20
2024-01-15T00:38:40.438Z,0.21
2024-01-15T00:39:42.657Z,0.13
2024-01-15T00:40:44.967Z,0.14
2024-01-15T00:41:46.985Z,0.23
2024-01-15T00:42:49.218Z,0.26
2024-01-15T00:43:51.235Z,0.28
2024-01-15T00:44:53.323Z,0.24
2024-01-15T00:45:55.367Z,0.22
2024-01-15T00:46:57.545Z,0.29
2024-01-15T00:47:59.791Z,0.04
2024-01-15T00:49:01.913Z,-0.03
2024-01-15T00:50:04.446Z,-0.05
2024-01-15T00:51:07.116Z,-0.01
2024-01-15T00:52:09.077Z,0.16
2024-01-15T00:53:11.003Z,0.14
2024-01-15T00:54:14.160Z,0.13
2024-01-15T00:55:17.270Z,-0.16
2024-01-15T00:56:20.016Z,0.06
2024-01-15T00:57:22.221Z,-0.06
2024-01-15T00:58:24.479Z,0.13
2024-01-15T00:59:26.614Z,0.04
2024-01-15T01:00:29.128Z,0.05
2024-01-15T01:01:32.348Z,0.06
2024-01-15T01:02:34.563Z,-0.05
2024-01-15T01:03:37.829Z,-0.09
2024-01-15T01:04:40.693Z,-0.03
2024-01-15T01:05:43.141Z,-0.04
2024-01-15T01:06:45.454Z,-0.02
2024-01-15T01:07:47.719Z,0.06
2024-01-15T01:08:49.742Z,0.16
2024-01-15T01:09:53.165Z,0.19
2024-01-15T01:10:57.473Z,0.21
2024-01-15T01:11:59.853Z,0.18
2024-01-15T01:13:06.313Z,0.08
2024-01-15T01:14:08.678Z,0.13
2024-01-15T01:15:11.274Z,0.23
2024-01-15T01:16:14.455Z,0.26
2024-01-15T01:17:16.410Z,0.21
2024-01-15T01:18:20.935Z,0.31
2024-01-15T01:19:23.534Z,0.39
2024-01-15T01:20:26.043Z,0.42
2024-01-15T01:21:28.260Z,0.40
2024-01-15T01:22:31.116Z,0.47
2024-01-15T01:23:33.410Z,0.39
2024-01-15T01:24:35.344Z,0.40
2024-01-15T01:25:37.306Z,0.24
2024-01-15T01:26:41.218Z,0.32
2024-01-15T01:27:43.472Z,0.31
2024-01-15T01:28:45.532Z,-0.01
2024-01-15T01:29:47.539Z,0.15
2024-01-15T01:30:49.929Z,0.16
2024-01-15T01:31:52.326Z,0.09
2024-01-15T01:32:54.449Z,0.24
2024-01-15T01:33:56.678Z,0.14
2024-01-15T01:34:58.805Z,-0.09
2024-01-15T01:36:00.754Z,-0.12
2024-01-15T01:37:02.669Z,-0.02
2024-01-15T01:38:04.660Z,-0.15
2024-01-15T01:39:06.624Z,-0.30
2024-01-15T01:40:09.873Z,-0.03
2024-01-15T01:41:11.883Z,-0.13
2024-01-15T01:42:14.052Z,0.02
2024-01-15T01:43:16.093Z,-0.08
2024-01-15T01:44:18.027Z,-0.16
2024-01-15T01:45:20.044Z,-0.15
2024-01-15T01:46:22.771Z,-0.07
2024-01-15T01:47:25.203Z,0.08
2024-01-15T01:48:28.103Z,0.01
2024-01-15T01:49:30.820Z,-0.11
2024-01-15T01:50:33.887Z,0.04
2024-01-15T01:51:36.415Z,0.01
2024-01-15T01:52:40.139Z,-0.31
2024-01-15T01:53:42.180Z,-0.19
2024-01-15T01:54:44.383Z,-0.02
2024-01-15T01:55:48.435Z,-0.06
2024-01-15T01:56:52.964Z,-0.10
2024-01-15T01:57:56.342Z,-0.05
2024-01-15T01:58:59.100Z,-0.06
2024-01-15T02:00:03.790Z,-0.01
2024-01-15T02:01:07.812Z,-0.21
2024-01-15T02:02:11.758Z,-0.27
2024-01-15T02:03:14.863Z,-0.24
2024-01-15T02:04:21.660Z,-0.27
2024-01-15T02:05:24.900Z,-0.10
2024-01-15T02:06:28.969Z,-0.22
2024-01-15T02:07:34.656Z,-0.08
2024-01-15T02:08:37.240Z,-0.05
2024-01-15T02:09:39.177Z,-0.39
2024-01-15T02:10:41.247Z,-0.12
2024-01-15T02:11:43.457Z,-0.05
2024-01-15T02:12:45.647Z,-0.11
2024-01-15T02:13:48.362Z,-0.07
2024-01-15T02:14:51.118Z,0.05
2024-01-15T02:15:54.338Z,0.01
2024-01-15T02:16:56.769Z,0.09
2024-01-15T02:18:07.345Z,0.04
2024-01-15T02:19:17.645Z,0.04
2024-01-15T02:20:23.228Z,-0.02
2024-01-15T02:21:25.358Z,0.08
2024-01-15T02:22:27.308Z,0.10
2024-01-15T02:23:29.423Z,0.09
2024-01-15T02:24:31.781Z,-0.01
2024-01-15T02:25:38.054Z,0.01
2024-01-15T02:26:40.340Z,-0.11
2024-01-15T02:27:44.418Z,-0.15
2024-01-15T02:28:46.601Z,0.01
2024-01-15T02:29:49.132Z,-0.11
2024-01-15T02:30:51.635Z,0.03
2024-01-15T02:31:53.770Z,0.16
2024-01-15T02:32:55.818Z,0.16
2024-01-15T02:33:58.363Z,0.09
2024-01-15T02:35:00.806Z,0.16
2024-01-15T02:36:03.307Z,-0.01
2024-01-15T02:37:05.397Z,0.06
2024-01-15T02:38:08.126Z,0.13
2024-01-15T02:39:10.194Z,0.11
2024-01-15T02:40:12.572Z,0.12
2024-01-15T02:41:14.475Z,0.18
2024-01-15T02:42:16.448Z,0.15
2024-01-15T02:43:18.435Z,0.02
2024-01-15T02:44:20.519Z,-0.12
2024-01-15T02:45:23.184Z,-0.17
2024-01-15T02:46:25.933Z,-0.03
2024-01-15T02:47:27.882Z,0.08
2024-01-15T02:48:29.957Z,-0.09
2024-01-15T02:49:31.996Z,-0.29
2024-01-15T02:50:34.475Z,-0.28
2024-01-15T02:51:36.530Z,-0.09
2024-01-15T02:52:38.522Z,-0.24
2024-01-15T02:53:40.497Z,-0.31
2024-01-15T02:54:43.046Z,-0.12
2024-01-15T02:55:45.032Z,-0.02
2024-01-15T02:56:47.316Z,0.03
2024-01-15T02:57:49.461Z,0.05
2024-01-15T02:58:51.529Z,0.02
2024-01-15T02:59:53.558Z,0.06
2024-01-15T03:00:55.966Z,-0.15
2024-01-15T03:01:58.464Z,0.04
2024-01-15T03:03:00.637Z,0.10
2024-01-15T03:04:03.628Z,-0.01
2024-01-15T03:05:07.574Z,0.08
2024-01-15T03:06:11.491Z,0.09
2024-01-15T03:07:14.193Z,0.13
2024-01-15T03:08:16.212Z,0.10
2024-01-15T03:09:18.270Z,-0.02
2024-01-15T03:10:21.935Z,-0.14
2024-01-15T03:11:24.065Z,-0.11
2024-01-15T03:12:26.043Z,-0.03
2024-01-15T03:13:28.253Z,-0.15
2024-01-15T03:14:30.309Z,-0.10
2024-01-15T03:15:32.277Z,-0.03
2024-01-15T03:16:34.364Z,-0.08
2024-01-15T03:17:36.377Z,-0.24
2024-01-15T03:18:38.404Z,-0.24
2024-01-15T03:19:40.453Z,-0.19
2024-01-15T03:20:43.534Z,-0.24
2024-01-15T03:21:45.577Z,-0.31
2024-01-15T03:22:47.578Z,-0.23
2024-01-15T03:23:49.647Z,-0.10
2024-01-15T03:24:52.868Z,-0.15
2024-01-15T03:25:54.893Z,-0.10
2024-01-15T03:26:57.449Z,-0.16
2024-01-15T03:27:59.511Z,-0.09
2024-01-15T03:29:01.515Z,-0.06
2024-01-15T03:30:04.272Z,-0.14
2024-01-15T03:31:07.750Z,-0.04
2024-01-15T03:32:11.169Z,-0.16
2024-01-15T03:33:13.156Z,-0.36
2024-01-15T03:34:15.777Z,-0.45
2024-01-15T03:35:17.778Z,-0.47
2024-01-15T03:36:20.859Z,-0.33
2024-01-15T03:37:22.914Z,-0.45
2024-01-15T03:38:24.824Z,-0.38
2024-01-15T03:39:26.974Z,-0.33
2024-01-15T03:40:29.597Z,-0.38
2024-01-15T03:41:31.619Z,-0.25
2024-01-15T03:42:33.743Z,-0.24
2024-01-15T03:43:35.877Z,-0.23
2024-01-15T03:44:38.012Z,-0.21
2024-01-15T03:45:40.064Z,-0.20
2024-01-15T03:46:42.469Z,-0.15
2024-01-15T03:47:44.480Z,-0.43
2024-01-15T03:48:46.944Z,-0.48
2024-01-15T03:49:49.256Z,-0.28
2024-01-15T03:50:51.883Z,-0.26
2024-01-15T03:51:54.965Z,-0.71
2024-01-15T03:52:56.903Z,-0.62
2024-01-15T03:53:58.799Z,-0.42
2024-01-15T03:55:00.770Z,-0.32
2024-01-15T03:56:03.185Z,-0.28
2024-01-15T03:57:05.253Z,-0.37
2024-01-15T03:58:07.351Z,-0.44
2024-01-15T03:59:09.330Z,-0.50
2024-01-15T04:00:14.938Z,-0.33
2024-01-15T04:01:17.121Z,-0.44
2024-01-15T04:02:19.159Z,-0.61
2024-01-15T04:03:21.435Z,-0.56
2024-01-15T04:04:23.725Z,-0.73
2024-01-15T04:05:26.565Z,-0.57
2024-01-15T04:06:29.339Z,-0.68
2024-01-15T04:07:31.510Z,-0.66
2024-01-15T04:08:33.414Z,-0.58
2024-01-15T04:09:35.403Z,-0.45
2024-01-15T04:10:37.826Z,-0.49
2024-01-15T04:11:39.901Z,-0.74
2024-01-15T04:12:42.312Z,-0.62
2024-01-15T04:13:44.244Z,-0.61
2024-01-15T04:14:46.262Z,-0.52
2024-01-15T04:15:48.197Z,-0.40
2024-01-15T04:16:50.633Z,-0.66
2024-01-15T04:17:52.610Z,-0.71
2024-01-15T04:18:54.628Z,-0.71
2024-01-15T04:19:56.727Z,-0.59
2024-01-15T04:20:59.184Z,-0.65
2024-01-15T04:22:01.128Z,-0.49
2024-01-15T04:23:03.265Z,-0.68
2024-01-15T04:24:05.683Z,-0.49
2024-01-15T04:25:07.898Z,-0.73
2024-01-15T04:26:10.189Z,-0.46
2024-01-15T04:27:15.151Z,-0.48
2024-01-15T04:28:17.175Z,-0.70
2024-01-15T04:29:19.192Z,-0.56
2024-01-15T04:30:22.101Z,-0.73
2024-01-15T04:31:25.864Z,-0.63
2024-01-15T04:32:28.004Z,-0.98
2024-01-15T04:33:30.210Z,-0.79
2024-01-15T04:34:32.459Z,-0.70
2024-01-15T04:35:34.795Z,-0.56
2024-01-15T04:36:41.863Z,-0.66
2024-01-15T04:37:44.031Z,-0.66
2024-01-15T04:38:45.997Z,-0.56
2024-01-15T04:39:48.054Z,-0.50
2024-01-15T04:40:50.579Z,-0.59
2024-01-15T04:41:52.616Z,-0.77
2024-01-15T04:42:55.128Z,-0.90
2024-01-15T04:43:57.123Z,-0.78
2024-01-15T04:45:01.198Z,-0.84
2024-01-15T04:46:05.437Z,-0.94
2024-01-15T04:47:07.470Z,-1.00
2024-01-15T04:48:09.626Z,-0.97
2024-01-15T04:49:12.529Z,-1.05
2024-01-15T04:50:15.968Z,-0.80
2024-01-15T04:51:18.035Z,-1.07
2024-01-15T04:52:20.133Z,-0.90
2024-01-15T04:53:24.059Z,-0.96
2024-01-15T04:54:26.092Z,-1.05
2024-01-15T04:55:29.419Z,-1.00
2024-01-15T04:56:32.130Z,-1.11
2024-01-15T04:57:37.466Z,-0.89
2024-01-15T04:58:39.680Z,-1.03
2024-01-15T04:59:41.630Z,-1.04
2024-01-15T05:00:44.177Z,-1.12
2024-01-15T05:01:46.196Z,-1.05
2024-01-15T05:02:48.354Z,-0.99
2024-01-15T05:03:50.843Z,-1.07
2024-01-15T05:04:53.082Z,-1.02
2024-01-15T05:05:55.280Z,-0.94
2024-01-15T05:06:57.782Z,-1.05
2024-01-15T05:07:59.872Z,-1.00
2024-01-15T05:09:01.959Z,-1.02
2024-01-15T05:10:04.652Z,-0.80
2024-01-15T05:11:10.184Z,-0.95
2024-01-15T05:12:12.270Z,-0.93
2024-01-15T05:13:16.246Z,-1.02
2024-01-15T05:14:18.352Z,-0.90
2024-01-15T05:15:20.380Z,-0.78
2024-01-15T05:16:24.196Z,-0.88
2024-01-15T05:17:26.123Z,-0.81
2024-01-15T05:18:28.264Z,-0.78
2024-01-15T05:19:30.530Z,-0.72
2024-01-15T05:20:32.884Z,-0.71
2024-01-15T05:21:34.996Z,-0.70
2024-01-15T05:22:36.993Z,-0.65
2024-01-15T05:23:38.984Z,-0.65
2024-01-15T05:24:42.445Z,-0.79
2024-01-15T05:25:44.467Z,-0.89
2024-01-15T05:26:47.244Z,-0.76
2024-01-15T05:27:49.222Z,-0.69
2024-01-15T05:28:51.188Z,-0.89
2024-01-15T05:29:53.184Z,-0.97
2024-01-15T05:30:55.499Z,-1.07
2024-01-15T05:32:01.290Z,-0.90
2024-01-15T05:33:01.676Z,-0.87
2024-01-15T05:34:03.956Z,-0.97
2024-01-15T05:35:06.247Z,-0.82
2024-01-15T05:36:08.846Z,-0.94
2024-01-15T05:37:10.905Z,-0.83
2024-01-15T05:38:13.065Z,-0.86
2024-01-15T05:39:15.321Z,-1.00
2024-01-15T05:40:17.829Z,-0.88
2024-01-15T05:41:19.752Z,-0.97
2024-01-15T05:42:21.808Z,-0.95
2024-01-15T05:43:23.755Z,-0.69
2024-01-15T05:44:25.728Z,-0.70
2024-01-15T05:45:27.934Z,-0.68
2024-01-15T05:46:29.977Z,-0.80
2024-01-15T05:47:32.151Z,-0.94
2024-01-15T05:48:34.453Z,-0.96
2024-01-15T05:49:36.777Z,-0.90
2024-01-15T05:50:39.193Z,-0.74
2024-01-15T05:51:41.153Z,-0.78
2024-01-15T05:52:43.124Z,-0.96
2024-01-15T05:53:45.042Z,-1.01
2024-01-15T05:54:47.156Z,-0.81
2024-01-15T05:55:49.190Z,-0.78
2024-01-15T05:56:51.264Z,-0.87
2024-01-15T05:57:53.227Z,-0.69
2024-01-15T05:58:55.131Z,-0.62
2024-01-15T05:59:57.296Z,-0.93
2024-01-15T06:00:59.781Z,-0.90
2024-01-15T06:02:01.909Z,-0.89
2024-01-15T06:03:06.072Z,-1.03
2024-01-15T06:04:09.434Z,-0.93
2024-01-15T06:05:11.636Z,-0.82
2024-01-15T06:06:14.242Z,-1.09
2024-01-15T06:07:16.565Z,-0.89
2024-01-15T06:08:18.565Z,-0.86
2024-01-15T06:09:20.569Z,-0.76
2024-01-15T06:10:23.688Z,-0.69
2024-01-15T06:11:30.594Z,-0.62
2024-01-15T06:12:32.557Z,-0.74
2024-01-15T06:13:35.008Z,-0.82
2024-01-15T06:14:36.905Z,-0.62
2024-01-15T06:15:40.283Z,-0.70
2024-01-15T06:16:42.876Z,-0.91
2024-01-15T06:17:47.133Z,-0.75
2024-01-15T06:18:49.300Z,-0.82
2024-01-15T06:19:51.585Z,-0.70
2024-01-15T06:20:53.844Z,-0.77
2024-01-15T06:21:56.480Z,-0.83
2024-01-15T06:22:58.530Z,-0.69
2024-01-15T06:24:00.462Z,-0.72
2024-01-15T06:25:03.390Z,-0.70
2024-01-15T06:26:05.593Z,-0.63
2024-01-15T06:27:08.352Z,-0.63
2024-01-15T06:28:11.815Z,-0.60
2024-01-15T06:29:14.002Z,-0.72
2024-01-15T06:30:18.214Z,-0.58
2024-01-15T06:31:20.398Z,-0.56
2024-01-15T06:32:22.418Z,-0.73
2024-01-15T06:33:24.717Z,-0.65
2024-01-15T06:34:26.818Z,-0.77
2024-01-15T06:35:28.849Z,-0.55
2024-01-15T06:36:31.948Z,-0.84
2024-01-15T06:37:34.344Z,-0.76
2024-01-15T06:38:36.301Z,-0.56
2024-01-15T06:39:38.365Z,-0.68
2024-01-15T06:40:40.497Z,-0.72
2024-01-15T06:41:42.717Z,-0.84
2024-01-15T06:42:44.753Z,-0.71
2024-01-15T06:43:46.766Z,-0.57
2024-01-15T06:44:48.646Z,-0.57
2024-01-15T06:45:50.827Z,-0.59
2024-01-15T06:46:53.381Z,-0.63
2024-01-15T06:47:55.353Z,-0.58
2024-01-15T06:48:57.431Z,-0.59
2024-01-15T06:49:59.519Z,-0.63
2024-01-15T06:51:01.606Z,-0.70
2024-01-15T06:52:04.113Z,-0.71
2024-01-15T06:53:06.246Z,-0.62
2024-01-15T06:54:08.602Z,-0.63
2024-01-15T06:55:10.585Z,-0.51
2024-01-15T06:56:14.094Z,-0.53
2024-01-15T06:57:16.125Z,-0.51
2024-01-15T06:58:18.098Z,-0.35
2024-01-15T06:59:20.692Z,-0.59
2024-01-15T07:00:23.119Z,-0.47
2024-01-15T07:01:25.433Z,-0.41
2024-01-15T07:02:27.656Z,-0.39
2024-01-15T07:03:29.791Z,-0.52
2024-01-15T07:04:31.820Z,-0.42
2024-01-15T07:05:36.018Z,-0.43
2024-01-15T07:06:39.285Z,-0.40
2024-01-15T07:07:41.486Z,-0.59
2024-01-15T07:08:43.812Z,-0.42
2024-01-15T07:09:45.848Z,-0.35
2024-01-15T07:10:48.068Z,-0.43
2024-01-15T07:11:50.125Z,-0.49
2024-01-15T07:12:55.770Z,-0.47
2024-01-15T07:14:00.365Z,-0.41
2024-01-15T07:15:02.714Z,-0.35
2024-01-15T07:16:05.443Z,-0.37
2024-01-15T07:17:07.593Z,-0.46
2024-01-15T07:18:09.622Z,-0.46
2024-01-15T07:19:12.412Z,-0.27
2024-01-15T07:20:16.863Z,-0.33
2024-01-15T07:21:19.260Z,-0.27
2024-01-15T07:22:22.528Z,-0.20
2024-01-15T07:23:24.513Z,-0.62
2024-01-15T07:24:26.528Z,-0.45
2024-01-15T07:25:29.243Z,-0.42
2024-01-15T07:26:31.778Z,-0.42
2024-01-15T07:27:35.022Z,-0.64
2024-01-15T07:28:37.228Z,-0.31
2024-01-15T07:29:41.103Z,-0.13
2024-01-15T07:30:48.055Z,-0.31
2024-01-15T07:31:51.966Z,-0.40
2024-01-15T07:32:54.451Z,-0.58
2024-01-15T07:33:57.825Z,-0.41
2024-01-15T07:35:01.610Z,-0.49
2024-01-15T07:36:07.462Z,-0.59
2024-01-15T07:37:09.527Z,-0.38
2024-01-15T07:38:11.903Z,-0.47
2024-01-15T07:39:14.086Z,-0.42
2024-01-15T07:40:19.242Z,-0.40
2024-01-15T07:41:21.304Z,-0.30
2024-01-15T07:42:23.221Z,-0.48
2024-01-15T07:43:26.652Z,-0.47
2024-01-15T07:44:28.723Z,-0.64
2024-01-15T07:45:32.240Z,-0.27
2024-01-15T07:46:34.880Z,-0.11
2024-01-15T07:47:37.072Z,-0.39
2024-01-15T07:48:41.362Z,-0.52
2024-01-15T07:49:44.604Z,-0.52
2024-01-15T07:50:51.484Z,-0.21
2024-01-15T07:51:53.624Z,-0.41
2024-01-15T07:52:55.769Z,-0.24
2024-01-15T07:53:58.110Z,-0.37
2024-01-15T07:55:01.377Z,-0.43
2024-01-15T07:56:05.416Z,-0.50
2024-01-15T07:57:07.455Z,-0.46
2024-01-15T07:58:15.918Z,-0.51
2024-01-15T07:59:13.148Z,-0.33
2024-01-15T08:00:17.995Z,-0.35
2024-01-15T08:01:23.379Z,-0.07
2024-01-15T08:02:26.323Z,-0.48
2024-01-15T08:03:28.560Z,-0.28
2024-01-15T08:04:30.890Z,-0.16
2024-01-15T08:05:33.134Z,-0.03
2024-01-15T08:06:36.922Z,-0.19
2024-01-15T08:07:40.124Z,-0.39
2024-01-15T08:08:42.049Z,-0.20
2024-01-15T08:09:44.037Z,0.07
2024-01-15T08:10:47.490Z,-0.11
2024-01-15T08:11:49.616Z,-0.12
2024-01-15T08:12:51.615Z,-0.01
2024-01-15T08:13:53.573Z,0.00
2024-01-15T08:14:55.618Z,0.28
2024-01-15T08:15:57.912Z,0.42
2024-01-15T08:17:00.449Z,0.07
2024-01-15T08:18:03.858Z,0.01
2024-01-15T08:19:06.111Z,0.12
2024-01-15T08:20:09.808Z,-0.07
2024-01-15T08:21:11.963Z,0.18
2024-01-15T08:22:14.044Z,0.02
2024-01-15T08:23:15.983Z,0.18
2024-01-15T08:24:18.516Z,0.08
2024-01-15T08:25:22.629Z,-0.17
2024-01-15T08:26:25.204Z,-0.15
2024-01-15T08:27:27.237Z,0.04
2024-01-15T08:28:29.311Z,0.06
2024-01-15T08:29:31.245Z,-0.13
2024-01-15T08:30:33.465Z,0.01
2024-01-15T08:31:37.498Z,0.05
2024-01-15T08:32:39.629Z,0.15
2024-01-15T08:33:41.690Z,0.11
2024-01-15T08:34:43.769Z,-0.28
2024-01-15T08:35:45.803Z,-0.14
2024-01-15T08:36:48.269Z,0.00
2024-01-15T08:37:52.698Z,0.03
2024-01-15T08:38:54.722Z,-0.05
2024-01-15T08:39:56.883Z,-0.25
2024-01-15T08:40:59.684Z,-0.13
2024-01-15T08:42:02.889Z,0.11
2024-01-15T08:43:06.802Z,0.09
2024-01-15T08:44:08.812Z,0.08
2024-01-15T08:45:10.757Z,0.25
2024-01-15T08:46:14.233Z,0.26
2024-01-15T08:47:16.199Z,0.19
2024-01-15T08:48:18.293Z,-0.18
2024-01-15T08:49:20.276Z,0.16
2024-01-15T08:50:22.907Z,0.17
2024-01-15T08:51:24.871Z,0.31
2024-01-15T08:52:28.213Z,0.35
2024-01-15T08:53:30.143Z,0.57
2024-01-15T08:54:32.100Z,0.46
2024-01-15T08:55:34.565Z,0.20
2024-01-15T08:56:39.527Z,0.36
2024-01-15T08:57:41.824Z,0.38
2024-01-15T08:58:44.477Z,0.49
2024-01-15T08:59:46.405Z,0.58
2024-01-15T09:00:49.007Z,0.43
2024-01-15T09:01:53.195Z,0.35
2024-01-15T09:02:55.816Z,0.69
2024-01-15T09:03:57.963Z,0.68
2024-01-15T09:05:00.057Z,0.68
2024-01-15T09:06:04.904Z,0.65
2024-01-15T09:07:09.247Z,0.55
2024-01-15T09:08:11.401Z,0.76
2024-01-15T09:09:14.393Z,0.78
2024-01-15T09:10:17.099Z,0.57
2024-01-15T09:11:22.436Z,0.50
2024-01-15T09:12:28.081Z,0.56
2024-01-15T09:13:30.133Z,0.57
2024-01-15T09:14:36.765Z,0.67
2024-01-15T09:15:36.199Z,0.59
2024-01-15T09:16:38.638Z,0.50
2024-01-15T09:17:40.660Z,0.75
2024-01-15T09:18:42.990Z,0.69
2024-01-15T09:19:45.233Z,0.76
2024-01-15T09:20:47.792Z,0.61
2024-01-15T09:21:49.921Z,0.94
2024-01-15T09:22:52.300Z,0.53
2024-01-15T09:23:54.332Z,0.63
2024-01-15T09:24:56.470Z,0.54
2024-01-15T09:25:58.706Z,0.55
2024-01-15T09:27:01.088Z,0.84
2024-01-15T09:28:03.543Z,0.67
2024-01-15T09:29:05.529Z,0.90
2024-01-15T09:30:08.484Z,0.85
2024-01-15T09:31:10.668Z,1.07
2024-01-15T09:32:13.268Z,1.08
2024-01-15T09:33:17.395Z,0.89
2024-01-15T09:34:19.601Z,0.78
2024-01-15T09:35:23.651Z,0.80
2024-01-15T09:36:27.272Z,1.04
2024-01-15T09:37:41.202Z,0.96
2024-01-15T09:38:33.175Z,0.96
2024-01-15T09:39:35.380Z,1.07
2024-01-15T09:40:43.172Z,1.09
2024-01-15T09:41:48.025Z,1.13
2024-01-15T09:42:54.329Z,0.87
2024-01-15T09:43:57.979Z,1.14
2024-01-15T09:45:00.778Z,0.93
2024-01-15T09:46:03.985Z,0.96
2024-01-15T09:47:08.118Z,1.12
2024-01-15T09:48:11.075Z,1.09
2024-01-15T09:49:14.563Z,1.17
2024-01-15T09:50:20.895Z,1.05
2024-01-15T09:51:25.485Z,1.09
2024-01-15T09:52:27.572Z,1.06
2024-01-15T09:53:30.766Z,1.08
2024-01-15T09:54:36.483Z,1.33
2024-01-15T09:55:38.524Z,1.26
2024-01-15T09:56:41.063Z,1.19
2024-01-15T09:57:44.863Z,1.15
2024-01-15T09:58:49.512Z,1.27
2024-01-15T09:59:54.846Z,1.18
2024-01-15T10:00:58.768Z,1.37
2024-01-15T10:02:03.236Z,1.31
2024-01-15T10:03:07.344Z,1.19
2024-01-15T10:04:10.103Z,1.45
2024-01-15T10:05:13.331Z,1.13
2024-01-15T10:06:19.556Z,1.39
2024-01-15T10:07:22.077Z,1.50
2024-01-15T10:08:24.105Z,1.45
2024-01-15T10:09:26.436Z,1.21
2024-01-15T10:10:29.863Z,1.25
2024-01-15T10:11:36.187Z,1.25
2024-01-15T10:12:42.080Z,1.36
2024-01-15T10:13:51.394Z,1.42
2024-01-15T10:14:53.907Z,1.53
2024-01-15T10:15:57.450Z,1.38
2024-01-15T10:17:00.498Z,1.31
2024-01-15T10:18:03.057Z,1.43
2024-01-15T10:19:05.376Z,1.55
2024-01-15T10:20:12.320Z,1.32
2024-01-15T10:21:15.641Z,1.23
2024-01-15T10:22:17.680Z,1.44
2024-01-15T10:23:19.676Z,1.17
2024-01-15T10:24:27.338Z,1.27
2024-01-15T10:25:30.454Z,1.24
2024-01-15T10:26:33.924Z,1.54
2024-01-15T10:27:37.249Z,1.25
2024-01-15T10:28:40.161Z,1.32
2024-01-15T10:29:44.479Z,1.37
2024-01-15T10:30:49.175Z,1.45
2024-01-15T10:31:52.564Z,1.21
2024-01-15T10:33:01.127Z,1.31
2024-01-15T10:34:12.228Z,1.27
2024-01-15T10:35:16.231Z,1.14
2024-01-15T10:36:21.697Z,1.16
2024-01-15T10:37:28.541Z,1.07
2024-01-15T10:38:29.334Z,0.96
2024-01-15T10:39:38.052Z,1.14
2024-01-15T10:40:43.721Z,1.12
2024-01-15T10:41:45.842Z,1.27
2024-01-15T10:42:52.500Z,1.21
2024-01-15T10:43:57.422Z,1.13
2024-01-15T10:45:00.254Z,1.17
2024-01-15T10:46:03.998Z,1.23
2024-01-15T10:47:06.975Z,1.20
2024-01-15T10:48:11.092Z,1.05
2024-01-15T10:49:13.502Z,1.14
2024-01-15T10:50:24.982Z,1.36
2024-01-15T10:51:27.348Z,1.36
2024-01-15T10:52:30.124Z,1.30
2024-01-15T10:53:33.521Z,1.03
2024-01-15T10:54:40.345Z,1.29
2024-01-15T10:55:44.327Z,1.35
2024-01-15T10:56:50.423Z,1.12
2024-01-15T10:57:54.362Z,1.05
2024-01-15T10:59:00.812Z,1.01
2024-01-15T11:00:03.922Z,1.28
2024-01-15T11:01:07.585Z,1.09
2024-01-15T11:02:10.346Z,1.16
2024-01-15T11:03:13.160Z,0.83
2024-01-15T11:04:15.904Z,0.88
2024-01-15T11:05:19.088Z,1.20
2024-01-15T11:06:24.776Z,1.09
2024-01-15T11:07:29.595Z,1.13
2024-01-15T11:08:32.243Z,1.09
2024-01-15T11:09:35.545Z,1.40
2024-01-15T11:10:46.086Z,1.22
2024-01-15T11:11:51.741Z,0.93
2024-01-15T11:12:53.690Z,0.95
2024-01-15T11:13:55.961Z,1.01
2024-01-15T11:15:05.568Z,0.83
2024-01-15T11:16:11.189Z,1.25
2024-01-15T11:17:14.949Z,1.38
2024-01-15T11:18:17.070Z,0.90
2024-01-15T11:19:19.405Z,0.96
2024-01-15T11:20:22.218Z,1.20
2024-01-15T11:21:27.862Z,1.19
2024-01-15T11:22:33.919Z,0.99
2024-01-15T11:23:57.004Z,0.88
2024-01-15T11:26:38.396Z,1.04
2024-01-15T11:27:43.499Z,0.91
2024-01-15T11:28:48.571Z,0.93
2024-01-15T11:29:54.300Z,0.82
2024-01-15T11:30:59.161Z,0.76
2024-01-15T11:32:07.398Z,0.97
2024-01-15T11:33:19.762Z,0.75
2024-01-15T11:34:24.361Z,0.99
2024-01-15T11:35:30.224Z,1.08
2024-01-15T11:36:55.922Z,0.92
2024-01-15T11:37:58.718Z,0.95
2024-01-15T11:39:00.842Z,0.69
2024-01-15T11:40:03.944Z,0.75
2024-01-15T11:41:09.866Z,0.98
2024-01-15T11:42:13.966Z,0.77
2024-01-15T11:43:16.300Z,0.96
2024-01-15T11:44:19.472Z,0.87
2024-01-15T11:45:23.165Z,1.02
2024-01-15T11:46:29.998Z,0.99
2024-01-15T11:47:57.958Z,1.04
2024-01-15T11:49:04.124Z,0.99
2024-01-15T11:50:07.914Z,1.00
2024-01-15T11:51:12.104Z,0.96
2024-01-15T11:52:17.721Z,0.66
2024-01-15T11:53:45.787Z,0.77
2024-01-15T11:55:02.969Z,0.73
2024-01-15T11:56:10.091Z,0.93
2024-01-15T11:57:16.431Z,0.84
2024-01-15T11:58:18.730Z,0.73
2024-01-15T11:59:20.708Z,0.94
2024-01-15T12:00:26.097Z,0.89
2024-01-15T12:01:29.648Z,0.94
2024-01-15T12:02:33.643Z,0.94
2024-01-15T12:03:35.943Z,1.14
2024-01-15T12:04:40.242Z,0.83
2024-01-15T12:05:43.434Z,0.85
2024-01-15T12:06:46.131Z,0.88
2024-01-15T12:07:50.127Z,1.03
2024-01-15T12:09:10.285Z,0.83
2024-01-15T12:10:17.605Z,0.84
2024-01-15T12:11:22.781Z,0.84
2024-01-15T12:12:30.372Z,0.93
2024-01-15T12:13:32.379Z,1.08
2024-01-15T12:14:34.353Z,1.01
2024-01-15T12:15:37.615Z,1.05
2024-01-15T12:16:39.847Z,0.71
2024-01-15T12:17:42.234Z,0.87
2024-01-15T12:18:45.657Z,0.97
2024-01-15T12:19:49.053Z,0.91
2024-01-15T12:20:55.003Z,1.11
2024-01-15T12:21:59.080Z,1.02
2024-01-15T12:23:04.171Z,0.81
2024-01-15T12:24:08.897Z,0.80
2024-01-15T12:25:11.036Z,0.71
2024-01-15T12:26:15.414Z,0.96
2024-01-15T12:27:17.847Z,1.03
2024-01-15T12:28:19.871Z,1.07
2024-01-15T12:29:21.797Z,0.96
2024-01-15T12:30:26.298Z,0.87
2024-01-15T12:31:30.412Z,0.96
2024-01-15T12:32:32.495Z,1.04
2024-01-15T12:33:36.803Z,0.83
2024-01-15T12:34:40.445Z,0.95
2024-01-15T12:35:42.449Z,0.89
2024-01-15T12:36:47.471Z,0.95
2024-01-15T12:37:51.867Z,0.71
2024-01-15T12:38:53.812Z,0.72
2024-01-15T12:39:55.821Z,0.61
2024-01-15T12:41:01.798Z,0.61
2024-01-15T12:42:04.944Z,0.75
2024-01-15T12:43:09.298Z,0.84
2024-01-15T12:44:11.951Z,0.92
2024-01-15T12:45:17.068Z,0.95
2024-01-15T12:46:19.808Z,0.85
2024-01-15T12:47:22.088Z,0.78
2024-01-15T12:48:24.739Z,0.71
2024-01-15T12:49:26.933Z,0.88
2024-01-15T12:50:30.072Z,0.75
2024-01-15T12:51:36.038Z,0.98
2024-01-15T12:52:42.435Z,0.83
2024-01-15T12:53:44.581Z,0.82
2024-01-15T12:54:46.710Z,0.76
2024-01-15T12:55:48.767Z,0.94
2024-01-15T12:56:54.733Z,1.15
2024-01-15T12:57:57.046Z,1.04
2024-01-15T12:58:59.125Z,1.04
2024-01-15T13:00:04.935Z,0.96
2024-01-15T13:01:07.035Z,1.09
2024-01-15T13:02:09.276Z,1.11
2024-01-15T13:03:17.324Z,1.03
2024-01-15T13:04:26.337Z,0.87
2024-01-15T13:05:30.469Z,0.73
2024-01-15T13:06:32.988Z,0.79
2024-01-15T13:07:35.909Z,0.96
2024-01-15T13:08:39.809Z,1.04
2024-01-15T13:09:41.962Z,0.96
2024-01-15T13:10:44.700Z,0.97
2024-01-15T13:11:50.797Z,0.98
2024-01-15T13:12:53.809Z,0.79
2024-01-15T13:13:56.461Z,0.94
2024-01-15T13:15:00.602Z,1.00
2024-01-15T13:16:04.392Z,0.86
2024-01-15T13:17:07.604Z,0.90
2024-01-15T13:18:12.449Z,0.85
2024-01-15T13:19:15.854Z,0.91
2024-01-15T13:20:19.985Z,0.99
2024-01-15T13:21:23.354Z,0.70
2024-01-15T13:22:25.969Z,0.92
2024-01-15T13:23:28.109Z,0.90
2024-01-15T13:24:30.180Z,0.84
2024-01-15T13:25:32.573Z,0.89
2024-01-15T13:26:36.252Z,0.96
2024-01-15T13:27:40.226Z,0.82
2024-01-15T13:28:42.590Z,0.95
2024-01-15T13:29:44.489Z,1.01
2024-01-15T13:30:46.819Z,0.85
2024-01-15T13:31:52.240Z,0.88
2024-01-15T13:32:54.833Z,0.91
2024-01-15T13:33:57.405Z,0.83
2024-01-15T13:35:00.859Z,0.76
2024-01-15T13:36:05.098Z,0.64
2024-01-15T13:37:07.210Z,0.69
2024-01-15T13:38:09.228Z,0.59
2024-01-15T13:39:11.454Z,0.69
2024-01-15T13:40:14.801Z,0.64
2024-01-15T13:41:17.743Z,0.79
2024-01-15T13:42:20.471Z,0.63
2024-01-15T13:43:23.874Z,0.54
2024-01-15T13:44:26.409Z,0.54
2024-01-15T13:45:28.421Z,0.44
2024-01-15T13:46:31.190Z,0.39
2024-01-15T13:47:33.304Z,0.32
2024-01-15T13:48:35.396Z,0.46